createdAt,value
2022-11-05T00:01:31.137Z,15.73
2022-11-05T00:04:53.303Z,21.80
2022-11-05T00:08:14.393Z,21.73
2022-11-05T00:11:18.624Z,21.13
2022-11-05T00:14:40.920Z,21.35
2022-11-05T00:17:44.087Z,21.08
2022-11-05T00:20:48.197Z,19.60
2022-11-05T00:24:10.303Z,17.87
2022-11-05T00:27:13.468Z,18.47
2022-11-05T00:30:19.355Z,10.07
2022-11-05T00:33:22.727Z,19.30
2022-11-05T00:36:25.636Z,12.32
2022-11-05T00:39:28.933Z,9.80
2022-11-05T00:42:50.452Z,14.00
2022-11-05T00:45:53.432Z,13.38
2022-11-05T00:49:19.784Z,16.95
2022-11-05T00:52:41.011Z,13.95
2022-11-05T00:55:46.460Z,16.43
2022-11-05T00:58:50.526Z,14.20
2022-11-05T01:01:53.622Z,12.65
2022-11-05T01:04:57.611Z,12.02
2022-11-05T01:08:01.891Z,8.98
2022-11-05T01:11:11.182Z,12.67
2022-11-05T01:14:18.994Z,13.27
2022-11-05T01:17:22.254Z,8.00
2022-11-05T01:20:25.960Z,5.20
2022-11-05T01:23:30.065Z,8.65
2022-11-05T01:26:33.791Z,8.50
2022-11-05T01:29:36.881Z,11.73
2022-11-05T01:32:40.521Z,10.20
2022-11-05T01:35:44.432Z,5.88
2022-11-05T01:38:48.259Z,7.35
2022-11-05T01:41:52.248Z,8.20
2022-11-05T01:45:15.055Z,5.83
2022-11-05T01:48:22.773Z,5.07
2022-11-05T01:51:28.779Z,4.32
2022-11-05T01:54:35.812Z,4.65
2022-11-05T01:57:39.727Z,4.03
2022-11-05T02:00:44.648Z,5.37
2022-11-05T02:03:51.281Z,5.93
2022-11-05T02:06:55.478Z,3.70
2022-11-05T02:10:10.766Z,4.20
2022-11-05T02:13:15.040Z,4.00
2022-11-05T02:16:22.929Z,4.13
2022-11-05T02:20:02.068Z,7.15
2022-11-05T02:23:42.584Z,5.43
2022-11-05T02:27:11.891Z,5.22
2022-11-05T02:30:56.470Z,5.10
2022-11-05T02:34:20.332Z,12.63
2022-11-05T02:37:50.233Z,18.45
2022-11-05T02:41:14.258Z,27.17
2022-11-05T02:44:42.246Z,20.92
2022-11-05T02:47:55.146Z,26.30
2022-11-05T02:51:13.702Z,28.03
2022-11-05T02:54:54.099Z,30.45
2022-11-05T02:58:00.278Z,22.85
2022-11-05T03:01:07.410Z,19.10
2022-11-05T03:04:13.555Z,13.50
2022-11-05T03:07:53.766Z,14.07
2022-11-05T03:11:05.632Z,12.95
2022-11-05T03:14:35.626Z,12.02
2022-11-05T03:17:56.769Z,15.05
2022-11-05T03:21:41.344Z,17.50
2022-11-05T03:24:49.739Z,20.87
2022-11-05T03:27:58.105Z,18.02
2022-11-05T03:31:03.582Z,15.70
2022-11-05T03:34:09.490Z,17.10
2022-11-05T03:37:12.790Z,16.97
2022-11-05T03:40:19.163Z,17.13
2022-11-05T03:43:25.273Z,16.70
2022-11-05T03:46:36.351Z,12.88
2022-11-05T03:50:13.343Z,9.85
2022-11-05T03:53:23.241Z,11.37
2022-11-05T03:56:29.980Z,10.40
2022-11-05T03:59:41.206Z,10.45
2022-11-05T04:02:44.299Z,12.05
2022-11-05T04:06:08.426Z,11.95
2022-11-05T04:09:30.373Z,10.70
2022-11-05T04:12:52.645Z,7.67
2022-11-05T04:16:16.179Z,8.32
2022-11-05T04:19:39.106Z,9.07
2022-11-05T04:23:01.692Z,10.40
2022-11-05T04:26:04.715Z,9.27
2022-11-05T04:29:27.094Z,10.53
2022-11-05T04:32:30.790Z,10.23
2022-11-05T04:35:40.389Z,11.98
2022-11-05T04:38:43.992Z,11.52
2022-11-05T04:41:49.110Z,8.50
2022-11-05T04:44:52.962Z,3.07
2022-11-05T04:47:56.247Z,8.18
2022-11-05T04:50:59.983Z,13.70
2022-11-05T04:54:03.876Z,12.30
2022-11-05T04:57:06.995Z,5.77
2022-11-05T05:00:11.936Z,4.53
2022-11-05T05:03:15.063Z,2.40
2022-11-05T05:06:20.109Z,2.53
2022-11-05T09:19:07.726Z,6.70
2022-11-05T09:22:13.495Z,7.80
2022-11-05T09:25:17.404Z,6.55
2022-11-05T09:28:23.619Z,9.90
2022-11-05T09:31:27.339Z,12.53
2022-11-05T09:34:31.188Z,10.32
2022-11-05T09:37:36.440Z,9.88
2022-11-05T09:40:56.292Z,10.38
2022-11-05T09:44:16.189Z,10.47
2022-11-05T09:47:25.379Z,10.30
2022-11-05T09:50:54.492Z,22.02
2022-11-05T09:54:00.037Z,25.02
2022-11-05T09:57:06.701Z,23.65
2022-11-05T10:00:17.112Z,22.33
2022-11-05T10:03:25.708Z,21.77
2022-11-05T10:06:29.961Z,19.92
2022-11-05T10:09:48.636Z,19.75
2022-11-05T10:12:56.927Z,21.13
2022-11-05T10:16:28.696Z,26.10
2022-11-05T10:19:47.133Z,25.37
2022-11-05T10:22:57.345Z,29.20
2022-11-05T10:26:08.401Z,24.90
2022-11-05T10:29:21.095Z,27.13
2022-11-05T10:32:39.284Z,31.00
2022-11-05T10:35:53.165Z,37.07
2022-11-05T10:39:15.606Z,37.63
2022-11-05T10:42:33.164Z,63.15
2022-11-05T10:45:47.604Z,54.38
2022-11-05T10:49:01.524Z,43.73
2022-11-05T10:52:42.060Z,38.77
2022-11-05T10:55:51.131Z,34.40
2022-11-05T10:58:56.938Z,30.95
2022-11-05T11:02:17.222Z,33.72
2022-11-05T11:05:44.437Z,34.03
2022-11-05T11:08:49.476Z,34.80
2022-11-05T11:12:21.557Z,35.80
2022-11-05T11:15:33.172Z,43.75
2022-11-05T11:18:42.905Z,44.20
2022-11-05T11:21:46.222Z,54.97
2022-11-05T11:24:54.407Z,66.73
2022-11-05T11:28:04.047Z,65.35
2022-11-05T11:31:17.650Z,66.95
2022-11-05T11:34:41.047Z,47.05
2022-11-05T11:37:46.506Z,44.60
2022-11-05T11:40:49.583Z,47.07
2022-11-05T11:44:18.793Z,36.17
2022-11-05T11:47:23.327Z,35.78
2022-11-05T11:50:39.876Z,29.85
2022-11-05T11:53:43.285Z,25.77
2022-11-05T11:56:48.957Z,21.57
2022-11-05T12:00:11.706Z,17.83
2022-11-05T12:03:22.510Z,15.27
2022-11-05T12:06:42.425Z,17.52
2022-11-05T12:10:04.188Z,19.23
2022-11-05T12:13:20.355Z,17.33
2022-11-05T12:16:48.263Z,12.52
2022-11-05T12:20:15.959Z,10.35
2022-11-05T12:23:44.107Z,14.13
2022-11-05T12:27:10.365Z,14.67
2022-11-05T12:30:21.144Z,16.60
2022-11-05T12:33:36.291Z,5.53
2022-11-05T12:37:05.119Z,7.38
2022-11-05T12:40:34.589Z,14.45
2022-11-05T12:44:01.197Z,7.70
2022-11-05T12:47:16.105Z,14.80
2022-11-05T12:50:40.256Z,12.73
2022-11-05T12:54:00.927Z,6.85
2022-11-05T12:57:05.943Z,10.10
2022-11-05T13:00:22.997Z,8.07
2022-11-05T13:03:49.439Z,9.57
2022-11-05T13:06:55.759Z,9.07
2022-11-05T13:10:07.809Z,9.95
2022-11-05T13:13:11.021Z,9.45
2022-11-05T13:16:23.080Z,9.40
2022-11-05T13:19:28.391Z,8.07
2022-11-05T13:22:52.558Z,9.68
2022-11-05T13:26:04.237Z,10.50
2022-11-05T13:29:42.005Z,10.07
2022-11-05T13:32:50.836Z,8.83
2022-11-05T13:36:21.482Z,10.70
2022-11-05T13:39:30.722Z,13.43
2022-11-05T13:42:51.977Z,12.55
2022-11-05T13:46:14.205Z,13.30
2022-11-05T13:49:48.008Z,13.80
2022-11-05T13:53:33.089Z,14.07
2022-11-05T13:57:03.720Z,11.77
2022-11-05T14:00:12.346Z,15.00
2022-11-05T14:03:20.836Z,13.82
2022-11-05T14:06:32.585Z,18.03
2022-11-05T14:09:37.505Z,15.57
2022-11-05T14:12:41.339Z,11.50
2022-11-05T14:16:09.632Z,12.95
2022-11-05T14:19:22.132Z,10.93
2022-11-05T14:22:34.376Z,13.70
2022-11-05T14:25:38.060Z,14.87
2022-11-05T14:28:48.251Z,8.98
2022-11-05T14:32:08.381Z,10.38
2022-11-05T14:35:18.548Z,11.13
2022-11-05T14:38:27.449Z,13.23
2022-11-05T14:41:30.953Z,13.47
2022-11-05T14:44:36.822Z,12.93
2022-11-05T14:47:52.540Z,12.10
2022-11-05T14:50:56.414Z,12.45
2022-11-05T14:54:06.095Z,13.50
2022-11-05T14:57:15.475Z,13.00
2022-11-05T15:00:37.106Z,14.40
2022-11-05T15:03:46.683Z,16.00
2022-11-05T15:07:05.441Z,16.20
2022-11-05T15:10:16.790Z,16.90
2022-11-05T15:13:58.422Z,19.17
2022-11-05T15:17:23.044Z,21.73
2022-11-05T15:20:49.960Z,18.55
2022-11-05T15:23:57.687Z,20.73
2022-11-05T15:27:06.869Z,20.53
2022-11-05T15:30:22.840Z,80.83
2022-11-05T15:33:26.657Z,23.27
2022-11-05T15:36:31.935Z,20.38
2022-11-05T15:39:50.486Z,17.40
2022-11-05T15:43:18.305Z,15.93
2022-11-05T15:46:30.388Z,12.50
2022-11-05T15:49:34.571Z,14.02
2022-11-05T15:52:44.621Z,13.73
2022-11-05T15:55:58.818Z,13.63
2022-11-05T15:59:16.864Z,10.67
2022-11-05T16:02:30.321Z,9.90
2022-11-05T16:05:44.593Z,8.65
2022-11-05T16:08:51.506Z,6.20
2022-11-05T16:12:21.366Z,5.63
2022-11-05T16:15:30.091Z,5.67
2022-11-05T16:18:39.400Z,5.50
2022-11-05T16:22:04.292Z,6.10
2022-11-05T16:25:30.168Z,7.63
2022-11-05T16:28:33.970Z,7.30
2022-11-05T16:31:37.797Z,8.10
2022-11-05T16:34:46.250Z,5.00
2022-11-05T16:37:52.215Z,6.13
2022-11-05T16:40:56.579Z,6.47
2022-11-05T16:44:00.875Z,7.35
2022-11-05T16:47:04.928Z,7.00
2022-11-05T16:50:22.623Z,7.90
2022-11-05T16:53:26.569Z,8.90
2022-11-05T16:56:30.249Z,8.75
2022-11-05T16:59:34.786Z,7.65
2022-11-05T17:02:38.551Z,7.87
2022-11-05T17:05:42.799Z,7.73
2022-11-05T17:08:47.584Z,7.93
2022-11-05T17:11:50.978Z,7.35
2022-11-05T17:14:54.661Z,8.23
2022-11-05T17:17:59.715Z,7.30
2022-11-05T17:21:03.534Z,7.00
2022-11-05T17:24:08.113Z,6.38
2022-11-05T17:27:11.755Z,7.80
2022-11-05T17:30:16.416Z,7.05
2022-11-05T17:33:20.083Z,6.10
2022-11-05T17:36:24.409Z,5.97
2022-11-05T17:39:31.643Z,6.03
2022-11-05T17:42:35.884Z,5.78
2022-11-05T17:45:48.832Z,5.32
2022-11-05T17:48:52.889Z,4.83
2022-11-05T17:51:56.609Z,4.93
2022-11-05T17:54:59.523Z,5.28
2022-11-05T17:58:03.523Z,5.15
2022-11-05T18:01:08.688Z,5.57
2022-11-05T18:04:13.544Z,4.70
2022-11-05T18:07:17.387Z,4.47
2022-11-05T18:10:21.481Z,4.13
2022-11-05T18:13:25.312Z,3.97
2022-11-05T18:16:28.948Z,4.45
2022-11-05T18:19:32.880Z,3.97
2022-11-05T18:22:40.595Z,4.30
2022-11-05T18:25:44.316Z,108.22
2022-11-05T18:28:48.116Z,8.52
2022-11-05T18:31:51.151Z,7.22
2022-11-05T18:34:55.219Z,9.83
2022-11-05T18:37:58.969Z,5.87
2022-11-05T18:41:08.498Z,6.00
2022-11-05T18:44:15.349Z,6.22
2022-11-05T18:47:18.711Z,6.63
2022-11-05T18:50:21.753Z,6.60
2022-11-05T18:53:25.760Z,6.83
2022-11-05T18:56:28.929Z,6.60
2022-11-05T18:59:38.170Z,6.32
2022-11-05T19:02:43.412Z,6.35
2022-11-05T19:05:47.828Z,6.03
2022-11-05T19:08:51.805Z,5.93
2022-11-05T19:11:57.957Z,5.72
2022-11-05T19:15:03.035Z,5.25
2022-11-05T19:18:07.333Z,5.30
2022-11-05T19:21:13.307Z,5.77
2022-11-05T19:24:17.841Z,4.70
2022-11-05T19:27:21.461Z,6.00
2022-11-05T19:30:26.653Z,5.20
2022-11-05T19:33:30.976Z,5.95
2022-11-05T19:36:35.197Z,5.83
2022-11-05T19:39:40.834Z,6.53
2022-11-05T19:42:44.494Z,6.65
2022-11-05T19:45:48.210Z,5.82
2022-11-05T19:48:52.361Z,7.47
2022-11-05T19:51:56.614Z,7.97
2022-11-05T19:55:00.377Z,6.57
2022-11-05T19:58:04.632Z,5.90
2022-11-05T20:01:09.123Z,5.93
2022-11-05T20:04:12.943Z,5.70
2022-11-05T20:07:16.656Z,5.60
2022-11-05T20:10:20.633Z,5.70
2022-11-05T20:13:24.710Z,5.00
2022-11-05T20:16:30.680Z,4.40
2022-11-05T20:19:34.711Z,4.40
2022-11-05T20:22:38.946Z,3.30
2022-11-05T20:25:43.320Z,3.70
2022-11-05T20:28:47.028Z,4.03
2022-11-05T20:31:50.561Z,4.20
2022-11-05T20:34:54.493Z,4.13
2022-11-05T20:37:57.405Z,4.10
2022-11-05T20:41:01.318Z,4.17
2022-11-05T20:44:05.182Z,3.92
2022-11-05T20:47:09.166Z,4.13
2022-11-05T20:50:13.017Z,4.10
2022-11-05T20:53:17.359Z,4.77
2022-11-05T20:56:23.415Z,5.80
2022-11-05T20:59:27.477Z,5.55
2022-11-05T21:02:30.877Z,5.38
2022-11-05T21:05:35.762Z,4.93
2022-11-05T21:08:39.561Z,4.93
2022-11-05T21:12:02.230Z,3.60
2022-11-05T21:15:06.925Z,4.13
2022-11-05T21:18:11.035Z,3.50
2022-11-05T21:21:19.814Z,4.03
2022-11-05T21:24:23.733Z,4.23
2022-11-05T21:27:27.655Z,3.87
2022-11-05T21:30:31.273Z,3.95
2022-11-05T21:33:35.009Z,5.45
2022-11-05T21:36:39.181Z,4.82
2022-11-05T21:39:42.227Z,8.77
2022-11-05T21:42:45.873Z,8.43
2022-11-05T21:45:49.419Z,6.90
2022-11-05T21:48:52.793Z,9.15
2022-11-05T21:52:14.899Z,8.73
2022-11-05T21:55:41.637Z,8.17
2022-11-05T21:59:03.394Z,7.57
2022-11-05T22:02:08.701Z,8.80
2022-11-05T22:05:12.036Z,8.43
2022-11-05T22:08:15.878Z,8.55
2022-11-05T22:11:19.344Z,8.17
2022-11-05T22:14:22.784Z,8.97
2022-11-05T22:17:26.342Z,9.02
2022-11-05T22:20:29.647Z,8.88
2022-11-05T22:23:33.098Z,8.80
2022-11-05T22:26:40.762Z,8.53
2022-11-05T22:29:44.813Z,8.43
2022-11-05T22:32:47.733Z,8.65
2022-11-05T22:35:51.431Z,8.68
2022-11-05T22:38:56.737Z,8.77
2022-11-05T22:42:05.716Z,8.47
2022-11-05T22:45:11.817Z,6.38
2022-11-05T22:48:15.830Z,6.35
2022-11-05T22:51:24.240Z,4.63
2022-11-05T22:54:27.707Z,4.30
2022-11-05T22:57:30.696Z,3.67
2022-11-05T23:00:37.287Z,3.97
2022-11-05T23:03:43.584Z,3.88
2022-11-05T23:07:05.811Z,4.20
2022-11-05T23:10:45.277Z,4.03
2022-11-05T23:13:49.243Z,4.00
2022-11-05T23:17:10.621Z,4.53
2022-11-05T23:20:38.319Z,4.60
2022-11-05T23:24:00.030Z,6.75
2022-11-05T23:27:04.031Z,7.07
2022-11-05T23:30:12.166Z,7.40
2022-11-05T23:33:17.044Z,7.37
2022-11-05T23:36:38.146Z,7.75
2022-11-05T23:39:42.981Z,5.65
2022-11-05T23:43:05.837Z,5.68
2022-11-05T23:46:28.473Z,5.40
2022-11-05T23:49:32.183Z,4.37
2022-11-05T23:52:35.840Z,4.82
2022-11-05T23:55:40.224Z,3.80
2022-11-05T23:58:43.852Z,4.00
